createdAt,value
2017-12-17T17:51:46.218Z,22.77
2017-12-17T17:54:14.488Z,25.77
2017-12-17T17:56:42.889Z,25.20
2017-12-17T17:59:11.456Z,18.93
2017-12-17T18:01:39.765Z,19.30
2017-12-17T18:04:08.043Z,25.33
2017-12-17T18:06:36.563Z,23.70
2017-12-17T18:09:04.836Z,27.70
2017-12-17T18:11:33.872Z,19.53
2017-12-17T18:14:02.404Z,24.60
2017-12-17T18:16:30.735Z,23.37
2017-12-17T18:18:58.985Z,22.97
2017-12-17T18:21:27.270Z,19.60
2017-12-17T18:23:55.681Z,22.07
2017-12-17T18:26:23.982Z,19.10
2017-12-17T18:28:52.433Z,23.23
2017-12-17T18:31:22.795Z,18.50
2017-12-17T18:33:51.697Z,18.47
2017-12-17T18:36:21.580Z,25.00
2017-12-17T18:38:49.845Z,20.03
2017-12-17T18:41:18.237Z,18.40
2017-12-17T18:43:46.551Z,22.70
2017-12-17T18:46:15.641Z,22.07
2017-12-17T18:48:44.749Z,20.20
2017-12-17T18:51:13.210Z,22.60
2017-12-17T18:53:41.544Z,21.43
2017-12-17T18:56:09.799Z,23.90
2017-12-17T18:58:38.261Z,22.10
2017-12-17T19:01:07.417Z,22.93
2017-12-17T19:03:35.715Z,22.67
2017-12-17T19:06:04.040Z,24.77
2017-12-17T19:08:32.351Z,19.97
2017-12-17T19:11:00.677Z,25.80
2017-12-17T19:13:29.699Z,22.20
2017-12-17T19:15:59.720Z,29.00
2017-12-17T19:18:28.913Z,24.70
2017-12-17T19:20:57.931Z,21.43
2017-12-17T19:23:26.193Z,23.97
2017-12-17T19:25:55.192Z,26.07
2017-12-17T19:28:24.528Z,26.30
2017-12-17T19:30:52.792Z,22.10
2017-12-17T19:33:22.065Z,24.93
2017-12-17T19:35:54.775Z,28.50
2017-12-17T19:38:24.036Z,24.27
2017-12-17T19:40:53.236Z,22.23
2017-12-17T19:43:23.697Z,20.27
2017-12-17T19:45:53.660Z,28.23
2017-12-17T19:48:21.998Z,28.00
2017-12-17T19:50:50.251Z,24.80
2017-12-17T19:53:18.525Z,19.23
2017-12-17T19:55:47.291Z,20.70
2017-12-17T19:58:16.894Z,23.60
2017-12-17T20:00:45.175Z,18.27
2017-12-17T20:03:13.477Z,19.13
2017-12-17T20:05:43.302Z,23.07
2017-12-17T20:08:11.517Z,22.00
2017-12-17T20:10:39.816Z,16.63
2017-12-17T20:13:08.095Z,21.43
2017-12-17T20:15:36.382Z,18.27
2017-12-17T20:18:04.662Z,20.87
2017-12-17T20:20:32.939Z,17.90
2017-12-17T20:23:02.030Z,15.80
2017-12-17T20:25:31.705Z,20.70
2017-12-17T20:28:00.029Z,16.53
2017-12-17T20:30:28.335Z,16.80
2017-12-17T20:32:56.608Z,14.90
2017-12-17T20:35:25.772Z,19.80
2017-12-17T20:37:54.278Z,16.50
2017-12-17T20:40:22.553Z,19.80
2017-12-17T20:42:50.875Z,19.33
2017-12-17T20:45:20.112Z,20.73
2017-12-17T20:47:48.370Z,19.37
2017-12-17T20:50:16.725Z,17.63
2017-12-17T20:52:45.016Z,19.63
2017-12-17T20:55:13.288Z,16.73
2017-12-17T20:57:41.589Z,16.57
2017-12-17T21:00:09.890Z,18.80
2017-12-17T21:02:38.954Z,15.27
2017-12-17T21:05:07.237Z,15.93
2017-12-17T21:07:35.599Z,14.63
2017-12-17T21:10:04.015Z,21.20
2017-12-17T21:12:32.480Z,13.37
2017-12-17T21:15:02.357Z,17.30
2017-12-17T21:17:30.717Z,14.77
2017-12-17T21:20:01.445Z,13.30
2017-12-17T21:22:29.749Z,13.07
2017-12-17T21:25:00.545Z,11.27
2017-12-17T21:27:28.841Z,14.63
2017-12-17T21:29:57.869Z,12.60
2017-12-17T21:32:26.168Z,16.77
2017-12-17T21:34:54.583Z,11.27
2017-12-17T21:37:22.866Z,12.40
2017-12-17T21:39:52.458Z,10.90
2017-12-17T21:42:20.739Z,14.50
2017-12-17T21:44:49.784Z,9.67
2017-12-17T21:47:18.064Z,12.33
2017-12-17T21:49:46.366Z,9.10
2017-12-17T21:52:14.766Z,10.20
2017-12-17T21:54:43.057Z,11.47
2017-12-17T21:57:12.524Z,8.80
2017-12-17T21:59:40.817Z,10.47
2017-12-17T22:02:09.146Z,8.23
2017-12-17T22:04:37.433Z,10.53
2017-12-17T22:07:05.831Z,9.60
2017-12-17T22:09:34.953Z,7.70
2017-12-17T22:12:03.211Z,12.00
2017-12-17T22:14:32.368Z,9.60
2017-12-17T22:17:00.665Z,8.67
2017-12-17T22:19:28.969Z,9.47
2017-12-17T22:21:57.737Z,13.73
2017-12-17T22:24:26.817Z,9.63
2017-12-17T22:26:55.081Z,12.10
2017-12-17T22:29:23.343Z,9.40
2017-12-17T22:31:51.613Z,11.30
2017-12-17T22:34:24.374Z,6.57
2017-12-17T22:36:53.441Z,11.20
2017-12-17T22:39:21.766Z,7.77
2017-12-17T22:41:50.910Z,7.47
2017-12-17T22:44:19.245Z,11.20
2017-12-17T22:46:48.278Z,9.03
2017-12-17T22:49:16.536Z,10.83
2017-12-17T22:51:44.838Z,10.17
2017-12-17T22:54:13.122Z,6.63
2017-12-17T22:56:41.861Z,7.93
2017-12-17T22:59:10.146Z,7.03
2017-12-17T23:01:38.405Z,7.57
2017-12-17T23:04:07.488Z,8.07
2017-12-17T23:06:36.883Z,7.00
2017-12-17T23:09:05.128Z,7.53
2017-12-17T23:11:33.500Z,7.33
2017-12-17T23:14:01.905Z,5.80
2017-12-17T23:16:30.917Z,7.67
2017-12-17T23:18:59.191Z,6.23
2017-12-17T23:21:27.483Z,8.23
2017-12-17T23:23:55.798Z,7.30
2017-12-17T23:26:25.185Z,8.93
2017-12-17T23:28:53.465Z,5.90
2017-12-17T23:31:21.996Z,8.13
2017-12-17T23:33:51.068Z,7.37
2017-12-17T23:36:19.312Z,7.17
2017-12-17T23:38:47.845Z,7.27
2017-12-17T23:41:16.184Z,8.07
2017-12-17T23:43:44.468Z,11.00
2017-12-17T23:46:12.876Z,6.30
2017-12-17T23:48:41.155Z,5.23
2017-12-17T23:51:10.280Z,5.87
2017-12-17T23:53:38.574Z,5.17
2017-12-17T23:56:06.833Z,6.50
2017-12-17T23:58:35.138Z,6.13
